Time;durP1;ratioP1;P1;durP2;ratioP2;P2;SDS_P1;SDS_P2;PMS_P1;PMS_P2;Temp;Humidity;BMP_temperature;BMP_pressure;BME280_temperature;BME280_humidity;BME280_pressure;Samples;Min_cycle;Max_cycle;Signal;HPM_P1;HPM_P2
2022/09/17 00:01:59;;;;;;;19.93;5.60;;;10.70;99.90;;;;;;2615005;54;20966;-72
2022/09/17 00:07:46;;;;;;;10.30;3.03;;;10.60;99.90;;;;;;2615096;54;20144;-72
2022/09/17 00:13:34;;;;;;;13.90;5.67;;;10.60;99.90;;;;;;2612866;54;20207;-73
2022/09/17 00:19:23;;;;;;;7.50;4.13;;;10.50;99.90;;;;;;2614783;39;20523;-72
2022/09/17 00:25:11;;;;;;;12.20;4.50;;;10.50;99.90;;;;;;2615215;54;20378;-72
2022/09/17 00:30:59;;;;;;;13.70;5.00;;;10.40;99.90;;;;;;2615419;54;20122;-73
2022/09/17 00:36:46;;;;;;;8.63;3.53;;;10.50;99.90;;;;;;2616847;39;20513;-72
2022/09/17 00:42:34;;;;;;;14.20;4.60;;;10.40;99.90;;;;;;2616102;46;20153;-72
2022/09/17 00:48:21;;;;;;;15.00;4.53;;;10.50;99.90;;;;;;2615025;54;20143;-73
2022/09/17 00:54:10;;;;;;;6.10;4.33;;;10.50;99.90;;;;;;2615711;54;20154;-73
2022/09/17 00:59:58;;;;;;;7.17;4.33;;;10.60;99.90;;;;;;2616110;54;20398;-73
2022/09/17 01:25:51;;;;;;;13.53;5.60;;;10.40;99.90;;;;;;2614450;54;20437;-72
2022/09/17 01:45:35;;;;;;;10.52;6.00;;;10.30;99.90;;;;;;2615116;54;20466;-74
2022/09/17 01:51:25;;;;;;;20.47;6.30;;;10.20;99.90;;;;;;2615084;54;20122;-73
2022/09/17 02:08:12;;;;;;;17.20;6.30;;;10.40;99.90;;;;;;2614307;54;20386;-74
2022/09/17 02:14:06;;;;;;;10.00;5.30;;;10.50;99.90;;;;;;2615550;54;20419;-74
2022/09/17 02:19:54;;;;;;;14.23;7.70;;;10.50;99.90;;;;;;2614143;54;20398;-74
2022/09/17 02:35:32;;;;;;;18.27;5.63;;;10.40;99.90;;;;;;2614255;54;20379;-73
2022/09/17 02:41:28;;;;;;;10.13;5.33;;;10.40;99.90;;;;;;2612435;54;20382;-71
2022/09/17 03:00:13;;;;;;;12.70;5.30;;;10.50;99.90;;;;;;2613699;54;20519;-71
2022/09/17 03:06:01;;;;;;;16.38;7.43;;;10.50;99.90;;;;;;2614948;54;20441;-70
2022/09/17 03:11:49;;;;;;;18.20;5.70;;;10.40;99.90;;;;;;2615090;54;20367;-72
2022/09/17 03:17:37;;;;;;;11.93;6.23;;;10.30;99.90;;;;;;2614526;54;20240;-71
2022/09/17 03:23:26;;;;;;;15.90;4.83;;;10.40;99.90;;;;;;2614297;54;20141;-71
2022/09/17 03:29:14;;;;;;;11.23;5.53;;;10.40;99.90;;;;;;2614861;54;20414;-71
2022/09/17 03:35:02;;;;;;;13.97;6.33;;;10.50;99.90;;;;;;2614813;54;20130;-72
2022/09/17 03:41:01;;;;;;;12.52;4.10;;;10.50;99.90;;;;;;2614654;54;20317;-71
2022/09/17 03:46:49;;;;;;;13.07;3.83;;;10.50;99.90;;;;;;2613548;54;20529;-71
2022/09/17 03:52:37;;;;;;;17.47;4.00;;;10.50;99.90;;;;;;2614619;54;20370;-71
2022/09/17 03:58:24;;;;;;;18.80;5.53;;;10.50;99.90;;;;;;2614174;54;20134;-71
2022/09/17 04:04:12;;;;;;;15.00;4.43;;;10.50;99.90;;;;;;2614754;54;20176;-70
2022/09/17 04:10:00;;;;;;;5.97;2.60;;;10.50;99.90;;;;;;2614897;54;20266;-70
2022/09/17 04:15:48;;;;;;;8.18;3.17;;;10.40;99.90;;;;;;2614141;54;20321;-72
2022/09/17 04:21:35;;;;;;;9.90;4.00;;;10.20;99.90;;;;;;2614259;54;20161;-71
2022/09/17 04:24:30;;;;;;;9.13;3.13;;;10.30;99.90;;;;;;2614227;54;20396;-71
2022/09/17 04:26:55;;;;;;;7.03;2.53;;;10.20;99.90;;;;;;2614274;54;20204;-71
2022/09/17 04:32:44;;;;;;;13.13;2.83;;;10.50;99.90;;;;;;2615570;39;20963;-72
2022/09/17 04:38:32;;;;;;;16.23;3.75;;;10.50;99.90;;;;;;2614830;54;20394;-72
2022/09/17 04:44:20;;;;;;;12.63;3.30;;;10.50;99.90;;;;;;2614826;54;20729;-71
2022/09/17 04:50:08;;;;;;;9.20;2.67;;;10.50;99.90;;;;;;2613423;54;20158;-72
2022/09/17 04:55:56;;;;;;;7.30;2.80;;;10.60;99.90;;;;;;2614226;54;20451;-72
2022/09/17 05:01:44;;;;;;;8.68;3.00;;;10.60;99.90;;;;;;2613265;54;20130;-71
2022/09/17 05:07:32;;;;;;;7.50;2.50;;;10.70;99.90;;;;;;2613817;54;20154;-72
2022/09/17 05:13:19;;;;;;;8.63;2.83;;;10.60;99.90;;;;;;2615492;54;20165;-71
2022/09/17 05:19:07;;;;;;;12.13;3.90;;;10.50;99.90;;;;;;2615169;54;20257;-70
2022/09/17 05:29:00;;;;;;;8.70;3.30;;;10.50;99.90;;;;;;2615426;54;20397;-71
2022/09/17 05:34:49;;;;;;;6.60;2.47;;;10.70;99.90;;;;;;2615370;54;20943;-70
2022/09/17 05:40:37;;;;;;;9.00;2.30;;;10.90;99.90;;;;;;2615915;39;20468;-72
2022/09/17 05:46:25;;;;;;;6.23;2.57;;;11.00;99.90;;;;;;2614953;39;20776;-71
2022/09/17 05:52:12;;;;;;;8.93;3.40;;;11.00;99.90;;;;;;2615548;54;20180;-71
2022/09/17 06:04:33;;;;;;;5.47;2.53;;;11.00;99.90;;;;;;2612797;54;20487;-73
2022/09/17 06:10:20;;;;;;;7.47;3.13;;;11.10;99.90;;;;;;2612758;54;20154;-72
2022/09/17 06:16:08;;;;;;;6.47;2.40;;;11.10;99.90;;;;;;2609858;54;20121;-73
2022/09/17 06:21:55;;;;;;;10.30;3.10;;;11.00;99.90;;;;;;2613052;54;20439;-73
2022/09/17 06:24:31;;;;;;;9.80;3.10;;;11.00;99.90;;;;;;2612257;54;20407;-71
2022/09/17 06:26:56;;;;;;;8.80;3.05;;;11.00;99.90;;;;;;2611658;46;20182;-71
2022/09/17 06:32:44;;;;;;;6.90;2.77;;;11.00;99.90;;;;;;2613313;54;20134;-72
2022/09/17 06:38:33;;;;;;;8.73;2.95;;;10.90;99.90;;;;;;2614303;39;20774;-72
2022/09/17 06:44:21;;;;;;;11.77;3.23;;;10.90;99.90;;;;;;2615350;54;20398;-71
2022/09/17 06:50:09;;;;;;;7.90;2.90;;;10.80;99.90;;;;;;2613888;54;20277;-72
2022/09/17 06:55:58;;;;;;;12.03;3.50;;;10.80;99.90;;;;;;2614483;54;20378;-70
2022/09/17 07:01:46;;;;;;;10.33;3.27;;;10.70;99.90;;;;;;2612001;54;20370;-70
2022/09/17 07:07:38;;;;;;;6.87;3.20;;;10.70;99.90;;;;;;2614011;54;20441;-73
2022/09/17 07:13:26;;;;;;;12.03;3.10;;;10.70;99.90;;;;;;2614472;54;20506;-72
2022/09/17 07:19:13;;;;;;;12.80;4.27;;;10.70;99.90;;;;;;2614572;54;20122;-72
2022/09/17 07:29:04;;;;;;;6.43;3.00;;;13.10;99.90;;;;;;2613315;54;20807;-72
2022/09/17 07:34:51;;;;;;;13.90;3.50;;;13.50;99.90;;;;;;2614715;54;20450;-72
2022/09/17 07:40:39;;;;;;;7.40;2.83;;;14.00;99.90;;;;;;2615325;54;21081;-71
2022/09/17 07:46:28;;;;;;;8.77;2.43;;;13.30;99.90;;;;;;2615446;54;20126;-72
2022/09/17 07:52:16;;;;;;;5.47;2.70;;;14.00;99.90;;;;;;2613624;54;20411;-72
2022/09/17 07:58:04;;;;;;;14.20;3.03;;;13.80;99.90;;;;;;2615293;54;20122;-73
2022/09/17 08:03:53;;;;;;;9.48;3.47;;;12.90;99.90;;;;;;2615328;54;20138;-72
2022/09/17 08:09:40;;;;;;;5.30;1.97;;;13.60;99.90;;;;;;2614836;54;20427;-72
2022/09/17 08:15:28;;;;;;;5.83;2.27;;;13.00;99.90;;;;;;2614799;54;20218;-72
2022/09/17 08:21:17;;;;;;;2.75;1.85;;;13.80;99.90;;;;;;2615517;39;20523;-73
2022/09/17 08:24:31;;;;;;;7.23;2.20;;;14.60;99.90;;;;;;2613412;54;20159;-73
2022/09/17 08:26:57;;;;;;;8.20;2.57;;;14.40;99.90;;;;;;2613673;54;21459;-74
2022/09/17 08:32:45;;;;;;;5.60;2.60;;;15.20;96.90;;;;;;2614472;54;20130;-72
2022/09/17 08:38:37;;;;;;;9.77;2.63;;;15.20;97.20;;;;;;2614125;54;20185;-73
2022/09/17 08:44:31;;;;;;;5.60;2.50;;;15.40;90.00;;;;;;2615200;54;20374;-73
2022/09/17 08:50:33;;;;;;;5.93;2.33;;;15.70;82.60;;;;;;2611276;54;20405;-72
2022/09/17 08:56:24;;;;;;;4.63;2.03;;;15.30;94.20;;;;;;2615920;54;20456;-73
2022/09/17 09:19:48;;;;;;;4.97;2.20;;;15.60;71.20;;;;;;2615623;54;20390;-73
2022/09/17 09:29:29;;;;;;;2.57;1.80;;;16.70;52.20;;;;;;2613606;54;20392;-71
2022/09/17 09:35:26;;;;;;;4.80;1.60;;;15.70;54.80;;;;;;2615307;54;20936;-74
2022/09/17 09:41:23;;;;;;;5.67;2.27;;;15.20;72.70;;;;;;2615340;54;20959;-74
2022/09/17 09:47:49;;;;;;;2.45;1.60;;;14.80;67.70;;;;;;2616112;46;20411;-73
2022/09/17 10:00:26;;;;;;;3.80;1.35;;;16.50;49.80;;;;;;2615723;39;20841;-73
2022/09/17 10:06:16;;;;;;;3.33;2.00;;;15.40;47.20;;;;;;2614855;54;20130;-75
2022/09/17 10:18:39;;;;;;;2.03;1.33;;;15.60;50.50;;;;;;2614499;46;20169;-72
2022/09/17 10:24:31;;;;;;;2.13;1.77;;;16.40;39.70;;;;;;2614055;54;20226;-73
2022/09/17 10:30:18;;;;;;;2.80;1.43;;;16.70;34.20;;;;;;2615077;31;20876;-73
2022/09/17 10:33:22;;;;;;;2.80;1.53;;;16.50;33.70;;;;;;2614448;54;20424;-73
2022/09/17 10:36:05;;;;;;;6.37;1.70;;;17.30;33.60;;;;;;2614594;47;20450;-74
2022/09/17 11:24:33;;;;;;;2.90;0.97;;;10.80;99.90;;;;;;2614251;31;21001;-71
2022/09/17 11:46:24;;;;;;;1.67;1.00;;;14.10;99.90;;;;;;2613553;54;20411;-73
2022/09/17 11:52:18;;;;;;;1.20;0.80;;;14.60;99.90;;;;;;2614126;54;20387;-72
2022/09/17 12:11:20;;;;;;;1.40;0.70;;;15.10;95.00;;;;;;2615217;54;20390;-74
2022/09/17 12:30:13;;;;;;;4.63;1.40;;;15.40;99.90;;;;;;2611123;54;20454;-74
2022/09/17 12:39:31;;;;;;;2.30;1.60;;;14.90;99.90;;;;;;2614373;46;20443;-74
2022/09/17 13:09:02;;;;;;;4.30;1.83;;;16.10;93.40;;;;;;2614385;54;20501;-73
2022/09/17 13:15:26;;;;;;;6.00;2.67;;;16.00;72.50;;;;;;2614661;39;20595;-73
2022/09/17 13:21:21;;;;;;;2.10;1.30;;;17.10;76.20;;;;;;2614058;54;20416;-73
2022/09/17 13:40:22;;;;;;;7.00;2.23;;;15.70;53.60;;;;;;2615504;54;20480;-74
2022/09/17 13:46:13;;;;;;;4.25;1.88;;;14.00;99.90;;;;;;2615785;39;20888;-74
2022/09/17 13:52:01;;;;;;;5.47;1.50;;;12.80;99.90;;;;;;2616059;54;20431;-72
2022/09/17 13:57:50;;;;;;;3.67;1.57;;;11.70;99.90;;;;;;2614232;31;20869;-72
2022/09/17 14:03:43;;;;;;;2.13;1.10;;;11.80;99.90;;;;;;2612999;54;20126;-72
2022/09/17 14:16:35;;;;;;;2.40;1.50;;;13.40;99.90;;;;;;2613505;54;20371;-74
2022/09/17 14:22:27;;;;;;;5.17;2.20;;;14.20;99.90;;;;;;2612516;54;20420;-74
2022/09/17 14:34:49;;;;;;;1.92;1.50;;;15.40;99.90;;;;;;2613358;54;20379;-73
2022/09/17 14:53:21;;;;;;;4.57;1.53;;;15.90;99.90;;;;;;2615091;54;20496;-73
2022/09/17 15:11:57;;;;;;;6.67;1.83;;;17.60;99.90;;;;;;2615484;54;20387;-73
2022/09/17 15:17:46;;;;;;;5.97;2.30;;;17.50;99.90;;;;;;2614091;54;20425;-74
2022/09/17 15:23:36;;;;;;;4.63;1.90;;;16.00;92.60;;;;;;2613882;54;20454;-74
2022/09/17 15:32:53;;;;;;;6.50;1.87;;;15.00;78.50;;;;;;2614956;54;20693;-74
2022/09/17 15:38:41;;;;;;;7.77;2.07;;;14.30;96.00;;;;;;2614946;54;20927;-73
2022/09/17 15:44:30;;;;;;;11.87;2.67;;;14.00;98.00;;;;;;2614472;54;20379;-73
2022/09/17 15:57:02;;;;;;;2.58;1.63;;;13.40;99.90;;;;;;2613689;54;20167;-73
2022/09/17 16:02:49;;;;;;;5.23;1.80;;;13.50;99.90;;;;;;2613419;54;20391;-72
2022/09/17 16:08:36;;;;;;;5.80;2.10;;;13.00;99.90;;;;;;2612367;54;20238;-73
2022/09/17 16:14:23;;;;;;;4.93;2.13;;;12.60;99.90;;;;;;2612874;54;20645;-73
2022/09/17 16:20:24;;;;;;;3.07;1.90;;;12.30;99.90;;;;;;2612275;54;20644;-73
2022/09/17 16:26:33;;;;;;;4.00;1.80;;;12.10;99.90;;;;;;2612432;54;20421;-73
2022/09/17 16:32:58;;;;;;;2.67;1.80;;;12.20;99.90;;;;;;2611927;54;21061;-73
2022/09/17 16:35:45;;;;;;;4.43;2.20;;;12.30;99.90;;;;;;2613189;54;20150;-73
2022/09/17 16:41:32;;;;;;;6.40;2.60;;;12.20;99.90;;;;;;2613696;54;20160;-73
2022/09/17 16:47:19;;;;;;;8.63;4.50;;;12.50;99.90;;;;;;2610424;39;20661;-73
2022/09/17 16:53:07;;;;;;;10.52;2.40;;;12.90;99.90;;;;;;2612881;54;20138;-72
2022/09/17 16:58:55;;;;;;;4.50;2.50;;;14.10;99.90;;;;;;2611536;54;20129;-74
2022/09/17 17:04:43;;;;;;;7.53;2.93;;;13.10;99.90;;;;;;2612287;54;20427;-73
2022/09/17 17:10:31;;;;;;;4.30;2.97;;;12.60;99.90;;;;;;2613096;54;20687;-74
2022/09/17 17:16:19;;;;;;;6.10;3.07;;;12.60;99.90;;;;;;2614187;54;20402;-73
2022/09/17 17:22:07;;;;;;;7.30;2.53;;;12.30;99.90;;;;;;2615097;54;20122;-73
2022/09/17 17:27:55;;;;;;;3.60;2.40;;;12.10;99.90;;;;;;2614460;54;20403;-73
2022/09/17 17:31:13;;;;;;;6.20;2.60;;;12.10;99.90;;;;;;2614485;54;20394;-74
2022/09/17 17:33:39;;;;;;;5.73;2.53;;;12.00;99.90;;;;;;2614358;54;20456;-73
2022/09/17 17:39:27;;;;;;;9.27;2.70;;;11.90;99.90;;;;;;2614922;54;20158;-72
2022/09/17 17:45:14;;;;;;;8.73;3.00;;;11.70;99.90;;;;;;2614275;54;20134;-72
2022/09/17 17:51:08;;;;;;;7.03;3.43;;;11.50;99.90;;;;;;2615183;54;20398;-74
2022/09/17 17:56:55;;;;;;;14.50;4.13;;;11.40;99.90;;;;;;2615524;54;20435;-75
2022/09/17 18:02:44;;;;;;;12.10;4.03;;;11.40;99.90;;;;;;2615307;54;20193;-74
2022/09/17 18:08:38;;;;;;;13.10;6.30;;;11.40;99.90;;;;;;2614188;54;20403;-72
2022/09/17 18:14:26;;;;;;;8.10;2.60;;;11.40;99.90;;;;;;2614818;54;20415;-73
2022/09/17 18:20:14;;;;;;;8.47;4.50;;;11.30;99.90;;;;;;2614166;54;20186;-72
2022/09/17 18:26:04;;;;;;;10.57;2.77;;;11.20;99.90;;;;;;2613143;54;20399;-72
2022/09/17 18:35:45;;;;;;;10.60;4.20;;;11.30;99.90;;;;;;2614830;54;20454;-74
2022/09/17 18:41:37;;;;;;;17.30;4.67;;;11.30;99.90;;;;;;2615258;54;20411;-73
2022/09/17 18:47:24;;;;;;;16.93;3.97;;;11.50;99.90;;;;;;2614865;54;20499;-73
2022/09/17 18:53:12;;;;;;;12.07;3.97;;;11.60;99.90;;;;;;2614687;54;20157;-73
2022/09/17 18:59:00;;;;;;;7.93;3.60;;;11.60;99.90;;;;;;2614804;54;20375;-73
2022/09/17 19:04:47;;;;;;;10.68;4.20;;;11.70;99.90;;;;;;2614755;54;20156;-72
2022/09/17 19:10:35;;;;;;;9.17;4.13;;;11.80;99.90;;;;;;2614449;54;20165;-73
2022/09/17 19:16:23;;;;;;;12.77;4.23;;;11.90;99.90;;;;;;2613682;54;20134;-73
2022/09/17 19:22:11;;;;;;;5.27;3.33;;;12.00;99.90;;;;;;2614750;54;20165;-73
2022/09/17 19:27:59;;;;;;;16.07;3.83;;;12.20;99.90;;;;;;2615065;54;20149;-72
2022/09/17 19:33:58;;;;;;;8.90;3.73;;;12.20;99.90;;;;;;2612808;54;20436;-73
2022/09/17 19:39:45;;;;;;;20.57;4.20;;;12.20;99.90;;;;;;2612649;54;20253;-73
2022/09/17 19:45:33;;;;;;;10.60;3.00;;;12.20;99.90;;;;;;2613023;39;20514;-74
2022/09/17 19:51:22;;;;;;;7.90;2.80;;;12.10;99.90;;;;;;2613680;54;20150;-73
2022/09/17 19:57:12;;;;;;;7.67;2.30;;;11.90;99.90;;;;;;2613469;54;20488;-73
2022/09/17 20:03:00;;;;;;;11.80;3.13;;;11.60;99.90;;;;;;2613161;54;20387;-72
2022/09/17 20:08:53;;;;;;;7.10;2.80;;;11.40;99.90;;;;;;2612362;54;20407;-73
2022/09/17 20:14:41;;;;;;;7.40;2.90;;;11.20;99.90;;;;;;2613701;54;20398;-72
2022/09/17 20:20:30;;;;;;;10.77;5.27;;;11.20;99.90;;;;;;2613964;54;22688;-73
2022/09/17 20:26:17;;;;;;;4.87;2.90;;;11.10;99.90;;;;;;2614406;54;20257;-73
2022/09/17 20:35:55;;;;;;;10.13;3.50;;;10.80;99.90;;;;;;2613211;54;20145;-72
2022/09/17 20:41:43;;;;;;;8.10;3.40;;;10.70;99.90;;;;;;2614835;54;20369;-72
2022/09/17 20:47:31;;;;;;;9.90;3.03;;;10.70;99.90;;;;;;2615656;39;20523;-73
2022/09/17 20:53:19;;;;;;;11.40;3.80;;;10.70;99.90;;;;;;2613515;54;20122;-72
2022/09/17 20:59:22;;;;;;;7.93;3.60;;;10.80;99.90;;;;;;2615770;54;20149;-72
2022/09/17 21:05:22;;;;;;;12.13;4.37;;;10.80;99.90;;;;;;2613154;54;20394;-73
2022/09/17 21:11:10;;;;;;;8.73;3.97;;;10.80;99.90;;;;;;2613789;54;20250;-72
2022/09/17 21:16:57;;;;;;;7.40;3.17;;;10.70;99.90;;;;;;2614225;54;20385;-73
2022/09/17 21:22:44;;;;;;;8.53;2.70;;;10.80;99.90;;;;;;2611980;54;20147;-73
2022/09/17 21:28:33;;;;;;;7.90;2.63;;;10.70;99.90;;;;;;2613181;54;20144;-72
2022/09/17 21:31:21;;;;;;;8.17;4.70;;;10.70;99.90;;;;;;2614143;46;20834;-72
2022/09/17 21:33:49;;;;;;;5.40;2.90;;;10.60;99.90;;;;;;2613570;54;21022;-72
2022/09/17 21:39:37;;;;;;;4.60;2.17;;;10.70;99.90;;;;;;2614650;54;20434;-72
2022/09/17 21:45:25;;;;;;;3.75;2.33;;;10.70;99.90;;;;;;2614744;54;20219;-73
2022/09/17 21:51:15;;;;;;;2.67;1.67;;;10.60;99.90;;;;;;2614703;54;20183;-71
2022/09/17 21:57:03;;;;;;;4.97;2.17;;;10.60;99.90;;;;;;2614622;54;20394;-73
2022/09/17 22:02:50;;;;;;;5.67;2.60;;;10.60;99.90;;;;;;2615066;54;20130;-72
2022/09/17 22:08:39;;;;;;;5.53;2.17;;;10.60;99.90;;;;;;2614692;54;20129;-72
2022/09/17 22:14:29;;;;;;;3.30;1.92;;;10.70;99.90;;;;;;2615168;54;20154;-72
2022/09/17 22:20:18;;;;;;;5.00;2.03;;;10.90;99.90;;;;;;2614147;54;20350;-72
2022/09/17 22:26:06;;;;;;;10.32;3.28;;;10.90;99.90;;;;;;2613690;54;20398;-73
2022/09/17 22:35:50;;;;;;;8.77;2.70;;;11.00;99.90;;;;;;2615039;54;20134;-71
2022/09/17 22:41:44;;;;;;;6.40;3.73;;;11.00;99.90;;;;;;2613869;54;20363;-71
2022/09/17 22:47:32;;;;;;;8.13;2.33;;;11.10;99.90;;;;;;2615295;54;20415;-72
2022/09/17 22:53:19;;;;;;;12.50;1.90;;;11.10;99.90;;;;;;2614799;54;20189;-71
2022/09/17 22:59:07;;;;;;;9.63;2.70;;;11.00;99.90;;;;;;2614457;54;20670;-71
2022/09/17 23:04:56;;;;;;;5.30;2.40;;;11.10;99.90;;;;;;2615131;54;20219;-72
2022/09/17 23:10:43;;;;;;;8.47;3.10;;;11.00;99.90;;;;;;2616156;39;20749;-73
2022/09/17 23:16:37;;;;;;;10.60;3.83;;;11.00;99.90;;;;;;2614659;54;20133;-71
2022/09/17 23:22:26;;;;;;;12.43;3.83;;;11.00;99.90;;;;;;2614218;54;20822;-73
2022/09/17 23:28:13;;;;;;;8.13;4.33;;;11.00;99.90;;;;;;2614476;54;20398;-72
2022/09/17 23:31:17;;;;;;;10.27;3.80;;;11.00;99.90;;;;;;2614489;47;20399;-72
2022/09/17 23:33:44;;;;;;;16.30;4.80;;;11.00;99.90;;;;;;2614300;54;20662;-72
2022/09/17 23:39:31;;;;;;;10.30;4.80;;;11.00;99.90;;;;;;2614218;54;20381;-71
2022/09/17 23:45:19;;;;;;;6.23;3.43;;;11.00;99.90;;;;;;2615377;46;20158;-73
2022/09/17 23:51:07;;;;;;;7.00;3.63;;;11.00;99.90;;;;;;2614435;54;20514;-72
2022/09/17 23:56:56;;;;;;;11.53;4.70;;;11.10;99.90;;;;;;2614425;54;20410;-75
